Time;durP1;ratioP1;P1;durP2;ratioP2;P2;SDS_P1;SDS_P2;PMS_P1;PMS_P2;Temp;Humidity;BMP_temperature;BMP_pressure;BME280_temperature;BME280_humidity;BME280_pressure;Samples;Min_cycle;Max_cycle;Signal;HPM_P1;HPM_P2
2021/06/23 04:54:58;;;;;;;38.00;8.60;;;;;;;31.96;47.11;98604.96;1753751;79;21131;-61
2021/06/23 04:57:26;;;;;;;51.75;10.65;;;;;;;32.05;46.69;98608.84;1771268;79;21510;-52
2021/06/23 04:59:53;;;;;;;48.15;9.63;;;;;;;32.10;46.90;98613.23;1766620;80;21028;-57
2021/06/23 05:02:23;;;;;;;46.28;9.08;;;;;;;32.33;46.83;98609.23;1758923;80;21542;-56
2021/06/23 05:04:50;;;;;;;41.15;9.70;;;;;;;32.50;46.69;98614.30;1770321;80;21078;-58
2021/06/23 05:07:19;;;;;;;42.75;10.90;;;;;;;32.54;46.69;98612.44;1748582;81;20991;-56
2021/06/23 05:09:47;;;;;;;58.98;10.82;;;;;;;32.70;46.79;98617.83;1769272;80;21055;-59
2021/06/23 05:12:17;;;;;;;55.63;9.65;;;;;;;32.72;46.52;98624.48;1744787;81;21463;-58
2021/06/23 05:14:45;;;;;;;50.73;10.63;;;;;;;32.68;46.36;98631.80;1774941;79;21051;-60
2021/06/23 05:17:13;;;;;;;54.45;10.30;;;;;;;32.72;46.41;98635.98;1717063;81;21102;-59
2021/06/23 05:19:41;;;;;;;51.33;10.55;;;;;;;32.76;46.38;98640.36;1731445;81;21081;-64
2021/06/23 05:22:12;;;;;;;50.67;10.63;;;;;;;32.80;46.25;98640.99;1702226;82;21090;-61
2021/06/23 05:24:40;;;;;;;61.48;11.68;;;;;;;32.74;46.89;98645.95;1701976;83;21030;-54
2021/06/23 05:27:08;;;;;;;65.62;11.12;;;;;;;33.03;46.71;98652.77;1691207;83;21073;-61
2021/06/23 05:29:36;;;;;;;56.37;13.32;;;;;;;33.50;45.48;98653.07;1752227;82;21015;-62
2021/06/23 05:32:05;;;;;;;58.08;11.53;;;;;;;34.00;44.26;98662.06;1754052;81;21041;-61
2021/06/23 05:34:33;;;;;;;59.98;10.88;;;;;;;34.29;43.70;98656.41;1747829;82;21502;-61
2021/06/23 05:37:00;;;;;;;71.33;11.75;;;;;;;34.52;43.14;98659.87;1747227;82;20968;-64
2021/06/23 05:39:28;;;;;;;54.95;10.18;;;;;;;34.69;43.22;98675.52;1747916;81;21042;-62
2021/06/23 05:41:55;;;;;;;61.53;12.07;;;;;;;34.76;42.82;98669.58;1749834;81;21091;-60
2021/06/23 05:44:23;;;;;;;57.23;11.70;;;;;;;34.87;42.47;98677.91;1745850;81;21405;-61
2021/06/23 05:46:51;;;;;;;57.35;10.75;;;;;;;34.97;42.33;98674.52;1750040;81;21079;-61
2021/06/23 05:49:19;;;;;;;61.48;11.08;;;;;;;34.99;42.65;98678.27;1749176;82;21066;-62
2021/06/23 05:51:48;;;;;;;56.45;12.00;;;;;;;35.25;42.41;98681.46;1748484;82;21065;-62
2021/06/23 05:54:16;;;;;;;56.25;13.32;;;;;;;35.50;41.33;98679.79;1770583;80;21094;-62
2021/06/23 05:56:43;;;;;;;60.05;11.33;;;;;;;35.73;40.79;98680.14;1775236;80;21498;-63
2021/06/23 05:59:11;;;;;;;68.05;13.25;;;;;;;35.76;39.96;98678.03;1751735;80;21565;-62
2021/06/23 06:01:39;;;;;;;55.58;11.53;;;;;;;35.79;40.03;98679.44;1774616;78;21008;-62
2021/06/23 06:04:06;;;;;;;62.53;11.85;;;;;;;35.93;39.96;98679.36;1794420;78;21038;-59
2021/06/23 06:06:35;;;;;;;59.73;11.80;;;;;;;35.94;40.28;98679.56;1792474;79;21023;-58
2021/06/23 06:09:02;;;;;;;58.58;13.62;;;;;;;35.96;40.19;98679.95;1788546;79;20976;-61
2021/06/23 06:11:30;;;;;;;59.00;12.68;;;;;;;35.96;40.30;98679.40;1747521;80;20976;-55
2021/06/23 06:13:58;;;;;;;62.93;12.82;;;;;;;36.01;39.93;98680.97;1747903;80;21568;-58
2021/06/23 06:16:26;;;;;;;67.70;13.85;;;;;;;35.89;39.42;98688.30;1739449;82;21001;-58
2021/06/23 06:18:56;;;;;;;62.70;11.65;;;;;;;35.62;39.61;98685.56;1752932;80;21094;-64
2021/06/23 06:21:23;;;;;;;59.00;12.13;;;;;;;35.37;40.33;98686.66;1827114;78;21554;-58
2021/06/23 06:23:50;;;;;;;64.22;12.73;;;;;;;35.27;41.16;98682.67;1832867;78;21066;-56
2021/06/23 06:26:19;;;;;;;72.03;12.60;;;;;;;35.43;40.08;98690.66;1799011;78;21010;-58
2021/06/23 06:28:47;;;;;;;59.37;11.37;;;;;;;35.30;39.48;98685.23;1786357;78;21019;-60
2021/06/23 06:31:14;;;;;;;63.20;12.53;;;;;;;35.02;39.93;98695.30;1771910;80;21397;-59
2021/06/23 06:33:42;;;;;;;61.95;12.03;;;;;;;34.81;40.12;98697.99;1773124;80;20999;-55
2021/06/23 06:36:09;;;;;;;73.22;12.25;;;;;;;34.60;40.34;98689.51;1772415;79;21098;-57
2021/06/23 06:38:37;;;;;;;64.87;12.25;;;;;;;34.40;40.67;98695.66;1728530;81;21027;-57
2021/06/23 06:41:05;;;;;;;62.00;11.73;;;;;;;34.39;41.19;98696.03;1754058;81;21020;-57
2021/06/23 06:43:33;;;;;;;64.17;11.48;;;;;;;34.50;41.04;98692.89;1752754;80;21518;-57
2021/06/23 06:46:01;;;;;;;42.35;9.85;;;;;;;34.70;40.66;98704.50;1749242;81;21462;-57
2021/06/23 06:48:29;;;;;;;48.90;9.90;;;;;;;34.74;38.99;98696.52;1753364;81;21003;-59
2021/06/23 06:50:57;;;;;;;63.80;9.93;;;;;;;34.69;39.06;98692.73;1750545;80;21047;-56
2021/06/23 06:53:24;;;;;;;49.03;10.05;;;;;;;34.66;38.85;98690.76;1782302;79;21125;-59
2021/06/23 06:55:52;;;;;;;44.77;10.28;;;;;;;34.41;37.07;98698.63;1816751;78;20992;-59
2021/06/23 06:58:20;;;;;;;52.55;10.93;;;;;;;33.96;37.23;98694.84;1829422;78;21000;-59
2021/06/23 07:00:48;;;;;;;51.85;9.38;;;;;;;33.52;38.45;98695.25;1820603;78;21460;-57
2021/06/23 07:03:16;;;;;;;53.02;10.75;;;;;;;33.31;38.75;98688.01;1832720;78;21012;-59
2021/06/23 07:05:43;;;;;;;44.10;9.48;;;;;;;33.11;39.17;98691.36;1832369;78;21105;-60
2021/06/23 07:08:12;;;;;;;51.35;10.35;;;;;;;32.98;39.80;98685.28;1806252;78;21501;-65
2021/06/23 07:10:39;;;;;;;39.55;9.33;;;;;;;32.93;40.40;98686.14;1814521;78;21030;-63
2021/06/23 07:13:07;;;;;;;47.62;8.88;;;;;;;33.09;39.34;98693.67;1813635;79;21030;-66
2021/06/23 07:15:34;;;;;;;49.88;9.23;;;;;;;33.12;39.20;98688.05;1819262;79;21042;-65
2021/06/23 07:18:02;;;;;;;42.53;8.30;;;;;;;33.18;39.78;98692.06;1817176;78;20983;-66
2021/06/23 07:20:32;;;;;;;41.83;8.50;;;;;;;33.25;39.75;98688.09;1803542;78;21191;-61
2021/06/23 07:22:59;;;;;;;41.65;8.40;;;;;;;33.22;38.55;98680.64;1828202;78;20967;-59
2021/06/23 07:25:27;;;;;;;39.73;8.23;;;;;;;33.18;37.46;98690.70;1834940;78;21573;-61
2021/06/23 07:27:55;;;;;;;40.23;8.25;;;;;;;33.11;37.90;98682.38;1822961;78;21522;-59
2021/06/23 07:30:23;;;;;;;37.35;8.33;;;;;;;33.09;39.73;98684.67;1814455;78;21132;-62
2021/06/23 07:32:54;;;;;;;41.28;7.75;;;;;;;32.96;39.87;98686.77;1817783;77;21074;-61
2021/06/23 07:38:13;;;;;;;32.78;6.12;;;;;;;32.99;38.34;98682.75;1814965;78;21022;-56
2021/06/23 07:40:44;;;;;;;31.17;6.25;;;;;;;33.04;36.92;98683.05;1830257;77;21040;-58
2021/06/23 07:43:09;;;;;;;34.70;6.10;;;;;;;33.12;36.79;98681.23;1825829;78;21139;-59
2021/06/23 07:45:38;;;;;;;31.12;6.75;;;;;;;33.24;36.27;98680.48;1826462;77;21541;-56
2021/06/23 07:48:07;;;;;;;41.20;6.78;;;;;;;33.31;36.75;98681.19;1822172;77;20994;-59
2021/06/23 07:50:47;;;;;;;41.05;6.83;;;;;;;33.25;36.79;98684.78;1823740;78;21004;-57
2021/06/23 07:53:17;;;;;;;36.13;7.00;;;;;;;33.12;37.86;98674.41;1827834;77;21031;-58
2021/06/23 08:09:07;;;;;;;31.80;5.25;;;;;;;32.27;37.02;98680.20;1816810;78;21026;-65
2021/06/23 08:11:42;;;;;;;35.50;6.00;;;;;;;32.16;35.41;98664.97;1792191;78;21583;-58
2021/06/23 08:14:04;;;;;;;27.40;5.30;;;;;;;32.05;37.70;98669.39;1760623;78;21073;-61
2021/06/23 08:16:36;;;;;;;24.37;6.33;;;;;;;31.82;36.79;98678.20;1797555;78;21557;-58
2021/06/23 08:19:05;;;;;;;32.35;6.83;;;;;;;31.59;36.82;98669.83;1802019;78;21078;-61
2021/06/23 08:21:34;;;;;;;28.12;5.78;;;;;;;31.45;38.15;98675.72;1806208;78;21468;-59
2021/06/23 08:24:02;;;;;;;25.27;6.08;;;;;;;31.29;38.64;98673.55;1834496;78;21071;-67
2021/06/23 08:26:30;;;;;;;24.80;5.50;;;;;;;31.19;38.01;98669.94;1828909;78;21475;-60
2021/06/23 08:28:57;;;;;;;26.52;5.80;;;;;;;31.10;36.74;98674.20;1817199;79;21039;-61
2021/06/23 08:31:26;;;;;;;26.45;5.72;;;;;;;31.07;37.28;98668.64;1786670;79;21545;-60
2021/06/23 08:33:54;;;;;;;26.73;5.90;;;;;;;31.09;37.93;98659.01;1826598;78;21022;-62
2021/06/23 08:36:21;;;;;;;28.20;5.95;;;;;;;31.11;39.07;98670.91;1824929;78;21063;-59
2021/06/23 08:38:50;;;;;;;28.83;5.67;;;;;;;31.09;39.49;98668.53;1816586;78;20994;-59
2021/06/23 08:41:18;;;;;;;30.30;5.53;;;;;;;31.01;40.23;98668.11;1804376;78;21478;-58
2021/06/23 08:43:46;;;;;;;27.90;5.75;;;;;;;30.90;40.97;98670.53;1813428;77;21502;-58
2021/06/23 08:46:14;;;;;;;25.23;5.28;;;;;;;30.88;40.25;98671.45;1807615;78;21043;-59
2021/06/23 08:48:43;;;;;;;25.20;6.05;;;;;;;30.86;40.13;98671.59;1777920;79;21094;-56
2021/06/23 08:51:11;;;;;;;33.10;6.37;;;;;;;30.85;39.62;98668.08;1796402;78;22448;-57
2021/06/23 08:53:38;;;;;;;33.67;6.55;;;;;;;30.87;40.30;98661.72;1808246;78;21168;-57
2021/06/23 08:56:07;;;;;;;36.40;6.70;;;;;;;30.89;41.43;98666.23;1810471;79;21014;-59
2021/06/23 08:58:35;;;;;;;32.35;5.50;;;;;;;30.91;43.00;98661.80;1810719;79;21062;-59
2021/06/23 09:01:02;;;;;;;23.40;5.30;;;;;;;30.94;41.65;98663.27;1812968;79;20983;-63
2021/06/23 09:03:30;;;;;;;32.60;6.47;;;;;;;30.99;40.05;98666.88;1818856;78;21066;-65
2021/06/23 09:05:59;;;;;;;25.57;5.97;;;;;;;30.98;41.20;98660.65;1814221;78;20975;-60
2021/06/23 09:08:38;;;;;;;31.25;6.10;;;;;;;30.94;41.31;98665.20;1819431;79;21018;-60
2021/06/23 09:11:16;;;;;;;29.20;7.25;;;;;;;30.99;41.67;98667.67;1808266;78;21081;-63
2021/06/23 09:13:45;;;;;;;29.70;5.60;;;;;;;31.03;42.85;98665.05;1803670;78;21047;-61
2021/06/23 09:16:14;;;;;;;35.75;6.10;;;;;;;31.08;42.13;98671.58;1792972;78;21082;-62
2021/06/23 09:18:43;;;;;;;33.75;6.22;;;;;;;31.11;41.47;98667.61;1769075;80;20971;-60
2021/06/23 09:21:20;;;;;;;25.25;5.53;;;;;;;31.07;41.73;98672.73;1800486;78;20994;-59
2021/06/23 09:23:56;;;;;;;22.02;4.95;;;;;;;31.04;41.84;98674.23;1815565;79;21537;-61
2021/06/23 09:26:29;;;;;;;33.00;6.25;;;;;;;31.05;42.00;98670.36;1822638;78;21046;-60
2021/06/23 09:29:16;;;;;;;27.75;6.00;;;;;;;31.12;42.23;98658.87;1800357;79;21079;-58
2021/06/23 09:32:05;;;;;;;33.65;6.42;;;;;;;31.17;41.92;98668.14;1783224;79;21044;-63
2021/06/23 09:34:42;;;;;;;27.75;5.42;;;;;;;31.23;41.31;98665.96;1804017;79;21042;-65
2021/06/23 09:37:34;;;;;;;29.35;5.05;;;;;;;31.26;39.67;98666.09;1810887;79;21530;-66
2021/06/23 09:40:18;;;;;;;;;;;;;;;31.29;40.16;98670.83;1777720;79;21067;-65
2021/06/23 09:42:49;;;;;;;27.20;5.47;;;;;;;31.39;39.97;98668.95;1810086;78;20132;-61
2021/06/23 09:45:19;;;;;;;31.85;6.72;;;;;;;31.45;40.49;98660.74;1801199;79;21549;-65
2021/06/23 09:48:06;;;;;;;31.65;5.90;;;;;;;31.50;41.03;98658.91;1796296;78;20991;-65
2021/06/23 09:50:37;;;;;;;28.17;6.12;;;;;;;31.57;40.99;98669.98;1794306;79;21604;-69
2021/06/23 09:53:08;;;;;;;;;;;;;;;31.59;39.37;98654.84;1820155;77;21098;-66
2021/06/23 09:55:44;;;;;;;27.10;5.55;;;;;;;31.57;39.34;98665.89;1801621;79;20102;-64
2021/06/23 09:58:14;;;;;;;23.62;5.47;;;;;;;31.56;39.49;98652.05;1818775;79;21054;-65
2021/06/23 10:01:10;;;;;;;29.30;5.70;;;;;;;31.54;40.31;98645.58;1819837;79;21007;-65
2021/06/23 10:04:07;;;;;;;30.10;6.12;;;;;;;31.56;40.21;98647.97;1794719;79;21043;-62
2021/06/23 10:06:47;;;;;;;32.40;5.58;;;;;;;31.58;40.63;98654.63;1772748;79;21055;-61
2021/06/23 10:09:26;;;;;;;31.17;5.58;;;;;;;31.59;40.05;98644.52;1805748;78;21510;-61
2021/06/23 10:12:08;;;;;;;30.05;6.70;;;;;;;31.57;39.41;98641.38;1786646;78;21074;-61
2021/06/23 10:14:45;;;;;;;34.23;5.78;;;;;;;31.61;39.46;98632.72;1782370;78;20995;-60
2021/06/23 10:17:13;;;;;;;32.17;5.28;;;;;;;31.70;40.74;98636.04;1780767;78;21030;-56
2021/06/23 10:19:41;;;;;;;30.68;5.58;;;;;;;31.73;39.71;98630.69;1794272;78;20984;-64
2021/06/23 10:22:10;;;;;;;30.57;6.35;;;;;;;31.75;38.61;98636.34;1803069;78;21051;-61
2021/06/23 10:24:39;;;;;;;28.95;5.58;;;;;;;31.82;38.01;98641.98;1811856;78;21549;-62
2021/06/23 10:27:10;;;;;;;25.68;4.95;;;;;;;31.90;39.22;98626.83;1799058;78;21044;-60
2021/06/23 10:29:40;;;;;;;27.42;5.87;;;;;;;31.95;37.88;98630.64;1809110;78;21547;-60
2021/06/23 10:32:08;;;;;;;27.65;5.97;;;;;;;31.99;38.09;98630.13;1806605;78;21066;-60
2021/06/23 10:34:36;;;;;;;29.85;5.62;;;;;;;32.02;38.24;98640.91;1817726;78;21007;-61
2021/06/23 10:37:06;;;;;;;31.10;5.50;;;;;;;32.04;39.29;98628.28;1828310;78;21531;-62
2021/06/23 10:39:35;;;;;;;32.33;5.37;;;;;;;32.04;38.93;98627.70;1813578;79;20975;-57
2021/06/23 10:42:07;;;;;;;30.02;5.55;;;;;;;32.02;40.13;98636.03;1786377;78;21050;-59
2021/06/23 10:44:47;;;;;;;30.57;5.62;;;;;;;32.09;40.43;98626.07;1782395;78;21466;-66
2021/06/23 10:47:34;;;;;;;28.02;4.92;;;;;;;32.15;39.09;98628.73;1799971;78;21093;-63
2021/06/23 10:50:04;;;;;;;34.18;6.00;;;;;;;32.15;39.10;98619.77;1774085;78;21044;-57
2021/06/23 10:52:41;;;;;;;26.60;5.23;;;;;;;32.12;39.17;98621.28;1790291;78;21010;-61
2021/06/23 10:55:26;;;;;;;27.05;4.83;;;;;;;32.13;39.97;98631.04;1808724;78;21098;-61
2021/06/23 10:57:59;;;;;;;30.05;6.45;;;;;;;32.13;38.95;98617.41;1790700;79;21028;-61
2021/06/23 11:00:30;;;;;;;20.43;4.58;;;;;;;32.17;38.95;98623.73;1711913;82;21572;-60
2021/06/23 11:03:07;;;;;;;23.98;5.40;;;;;;;32.20;39.67;98624.38;1730163;82;21047;-61
2021/06/23 11:05:38;;;;;;;27.87;4.83;;;;;;;32.24;39.39;98622.52;1763905;80;21033;-58
2021/06/23 11:08:33;;;;;;;27.10;5.40;;;;;;;32.24;39.50;98624.45;1769512;80;21032;-60
2021/06/23 11:11:07;;;;;;;21.87;4.70;;;;;;;32.29;40.05;98612.45;1808582;78;21022;-67
2021/06/23 11:13:38;;;;;;;24.37;4.45;;;;;;;32.42;39.40;98623.50;1810444;79;20979;-62
2021/06/23 11:16:07;;;;;;;25.17;5.67;;;;;;;32.51;39.40;98633.02;1810603;78;21007;-66
2021/06/23 11:18:40;;;;;;;24.35;4.87;;;;;;;32.53;39.32;98610.86;1771617;78;21033;-69
2021/06/23 11:21:18;;;;;;;25.75;5.17;;;;;;;32.54;39.51;98623.34;1809320;79;21030;-64
2021/06/23 11:23:59;;;;;;;23.30;5.15;;;;;;;32.57;37.95;98627.28;1810813;79;21026;-62
2021/06/23 11:26:33;;;;;;;23.00;4.53;;;;;;;32.54;38.02;98615.16;1816570;78;21494;-56
2021/06/23 11:29:20;;;;;;;22.77;4.83;;;;;;;32.60;37.92;98608.84;1778223;79;21514;-61
2021/06/23 11:31:59;;;;;;;15.10;4.60;;;;;;;32.62;37.60;98615.52;1791313;78;21058;-59
2021/06/23 11:34:51;;;;;;;20.92;4.92;;;;;;;32.60;37.91;98613.73;1809581;79;21520;-65
2021/06/23 11:37:17;;;;;;;21.15;4.45;;;;;;;32.63;37.97;98617.11;1807693;78;20999;-58
2021/06/23 11:39:44;;;;;;;20.32;4.83;;;;;;;32.63;37.10;98608.93;1809399;78;21014;-63
2021/06/23 11:42:14;;;;;;;16.27;3.90;;;;;;;32.62;38.46;98616.88;1800650;78;21575;-57
2021/06/23 11:44:43;;;;;;;24.50;5.17;;;;;;;32.60;37.42;98604.18;1802931;78;21008;-56
2021/06/23 11:47:11;;;;;;;28.12;4.42;;;;;;;32.64;38.49;98606.41;1801651;78;21523;-58
2021/06/23 11:49:39;;;;;;;23.25;4.95;;;;;;;32.66;37.83;98608.77;1794059;79;21043;-55
2021/06/23 11:52:08;;;;;;;27.15;5.17;;;;;;;32.66;38.55;98602.73;1805638;78;21647;-57
2021/06/23 11:54:36;;;;;;;27.77;4.90;;;;;;;32.73;37.84;98600.71;1800695;78;21133;-58
2021/06/23 11:57:06;;;;;;;23.02;4.72;;;;;;;32.77;38.04;98598.27;1813120;78;21656;-54
2021/06/23 11:59:33;;;;;;;20.30;5.20;;;;;;;32.77;37.26;98598.27;1825847;78;20956;-55
2021/06/23 12:02:01;;;;;;;15.53;4.05;;;;;;;32.78;37.83;98612.13;1830777;78;21012;-57
2021/06/23 12:04:31;;;;;;;21.68;5.15;;;;;;;32.77;37.35;98607.04;1823302;78;21492;-57
2021/06/23 12:06:59;;;;;;;24.87;4.37;;;;;;;32.77;37.96;98603.73;1781141;78;21536;-56
2021/06/23 12:09:26;;;;;;;20.12;4.12;;;;;;;32.77;38.03;98609.77;1813548;78;21101;-57
2021/06/23 12:11:57;;;;;;;18.80;4.30;;;;;;;32.78;38.10;98609.98;1809315;79;21112;-54
2021/06/23 12:14:26;;;;;;;;;;;;;;;32.81;37.72;98601.66;1814474;79;21187;-56
2021/06/23 12:16:53;;;;;;;21.87;4.25;;;;;;;32.83;38.33;98602.08;1801299;78;20401;-55
2021/06/23 12:19:21;;;;;;;24.57;4.25;;;;;;;32.87;38.42;98602.36;1803955;79;21019;-56
2021/06/23 12:21:50;;;;;;;14.87;4.28;;;;;;;32.95;37.86;98609.55;1814765;78;21073;-58
2021/06/23 12:24:18;;;;;;;29.02;5.08;;;;;;;33.00;38.07;98609.83;1809631;79;21015;-55
2021/06/23 12:26:45;;;;;;;23.50;4.83;;;;;;;33.02;38.21;98608.30;1814538;78;21021;-57
2021/06/23 12:29:13;;;;;;;19.55;4.87;;;;;;;33.05;38.71;98608.17;1808752;79;20999;-54
2021/06/23 12:31:41;;;;;;;22.70;4.40;;;;;;;33.05;38.20;98604.66;1801547;78;21050;-57
2021/06/23 12:34:10;;;;;;;18.00;4.33;;;;;;;33.02;38.77;98602.84;1799015;78;21058;-59
2021/06/23 12:36:38;;;;;;;18.23;4.28;;;;;;;33.00;37.52;98598.91;1769809;79;21569;-54
2021/06/23 12:39:06;;;;;;;18.60;4.60;;;;;;;32.94;37.98;98600.36;1776441;79;21492;-57
2021/06/23 12:41:33;;;;;;;20.43;4.42;;;;;;;32.84;38.95;98600.92;1789455;78;21244;-57
2021/06/23 12:44:05;;;;;;;21.20;4.85;;;;;;;32.69;39.02;98604.76;1807827;78;21515;-57
2021/06/23 12:46:33;;;;;;;21.02;4.72;;;;;;;32.59;38.81;98601.23;1800761;78;21004;-60
2021/06/23 12:49:01;;;;;;;22.40;4.40;;;;;;;32.63;39.62;98598.56;1804772;78;21008;-55
2021/06/23 12:51:29;;;;;;;17.02;3.98;;;;;;;32.71;39.56;98603.03;1806032;79;21069;-57
2021/06/23 12:53:57;;;;;;;14.38;3.95;;;;;;;32.75;38.21;98595.12;1808874;78;21093;-57
2021/06/23 12:56:26;;;;;;;22.27;4.05;;;;;;;32.77;38.42;98598.84;1799020;78;20999;-59
2021/06/23 12:58:54;;;;;;;20.77;4.35;;;;;;;32.78;38.31;98613.49;1802467;78;20956;-56
2021/06/23 13:01:23;;;;;;;16.45;3.77;;;;;;;32.75;38.59;98592.40;1788232;79;21576;-57
2021/06/23 13:03:51;;;;;;;13.62;4.00;;;;;;;32.74;38.91;98594.89;1810325;78;21069;-60
2021/06/23 13:06:18;;;;;;;17.98;4.03;;;;;;;32.72;39.95;98596.41;1804187;78;21031;-58
2021/06/23 13:08:47;;;;;;;15.78;4.15;;;;;;;32.73;39.59;98606.17;1782342;79;21549;-58
2021/06/23 13:11:17;;;;;;;18.20;3.75;;;;;;;32.70;39.16;98595.41;1784110;78;21037;-59
2021/06/23 13:14:02;;;;;;;16.57;4.42;;;;;;;32.70;39.11;98599.52;1809154;78;21098;-58
2021/06/23 13:16:48;;;;;;;9.88;3.70;;;;;;;32.63;38.82;98614.39;1792494;78;22119;-60
2021/06/23 13:19:34;;;;;;;13.93;3.87;;;;;;;32.59;39.60;98586.81;1803071;78;21026;-56
2021/06/23 13:22:02;;;;;;;12.28;3.37;;;;;;;32.64;38.73;98594.13;1789657;79;20974;-57
2021/06/23 13:24:30;;;;;;;16.07;3.60;;;;;;;32.66;38.79;98596.49;1768953;79;21009;-59
2021/06/23 13:26:58;;;;;;;10.82;4.03;;;;;;;32.66;39.75;98594.55;1797283;78;21529;-57
2021/06/23 13:29:26;;;;;;;15.08;3.60;;;;;;;32.65;39.68;98589.46;1796067;79;21012;-56
2021/06/23 13:31:54;;;;;;;14.03;3.70;;;;;;;32.64;39.63;98602.31;1745226;80;21504;-57
2021/06/23 13:34:22;;;;;;;13.48;4.10;;;;;;;32.65;39.29;98590.83;1817966;78;21043;-58
2021/06/23 13:36:50;;;;;;;10.58;3.83;;;;;;;32.69;40.32;98597.13;1781771;77;21026;-60
2021/06/23 13:39:18;;;;;;;15.53;4.03;;;;;;;32.73;40.86;98591.95;1815312;78;21027;-57
2021/06/23 13:41:46;;;;;;;14.35;3.42;;;;;;;32.77;40.97;98591.45;1829097;78;21090;-58
2021/06/23 13:44:14;;;;;;;15.13;3.52;;;;;;;32.76;40.48;98591.81;1813764;78;21034;-59
2021/06/23 13:46:42;;;;;;;16.90;3.65;;;;;;;32.74;40.57;98583.97;1811966;79;20964;-59
2021/06/23 13:49:10;;;;;;;10.93;3.90;;;;;;;32.70;40.77;98582.34;1812997;78;21517;-57
2021/06/23 13:51:38;;;;;;;16.77;4.00;;;;;;;32.66;41.10;98580.91;1814641;78;21031;-58
2021/06/23 13:54:06;;;;;;;13.35;4.12;;;;;;;32.68;40.46;98581.33;1813895;78;21038;-59
2021/06/23 13:56:35;;;;;;;13.58;3.55;;;;;;;32.67;40.82;98587.94;1807228;79;21011;-57
2021/06/23 13:59:03;;;;;;;8.03;3.75;;;;;;;32.64;41.01;98578.34;1809165;78;21447;-57
2021/06/23 14:01:31;;;;;;;13.80;3.58;;;;;;;32.65;41.26;98577.97;1819842;77;21463;-60
2021/06/23 14:03:59;;;;;;;10.95;3.72;;;;;;;32.64;41.93;98568.21;1823595;78;20992;-61
2021/06/23 14:06:27;;;;;;;12.75;3.52;;;;;;;32.65;42.45;98573.88;1824236;78;21126;-59
2021/06/23 14:08:55;;;;;;;9.70;3.70;;;;;;;32.68;42.28;98570.41;1831208;77;21063;-59
2021/06/23 14:11:23;;;;;;;12.65;3.62;;;;;;;32.68;42.97;98574.50;1824477;77;21514;-61
2021/06/23 14:13:51;;;;;;;18.23;4.67;;;;;;;32.69;42.96;98568.47;1827892;77;21040;-60
2021/06/23 14:16:19;;;;;;;13.58;3.50;;;;;;;32.72;42.81;98568.55;1831858;78;21028;-61
2021/06/23 14:18:49;;;;;;;12.50;4.28;;;;;;;32.76;41.86;98567.26;1812341;77;21038;-61
2021/06/23 14:21:17;;;;;;;14.13;4.08;;;;;;;32.75;42.54;98563.74;1817628;78;21017;-59
2021/06/23 14:23:46;;;;;;;11.08;4.10;;;;;;;32.76;42.14;98569.98;1816733;77;21011;-61
2021/06/23 14:26:15;;;;;;;15.15;4.87;;;;;;;32.74;42.38;98561.35;1823650;78;21562;-65
2021/06/23 14:28:43;;;;;;;14.25;3.92;;;;;;;32.74;42.90;98562.14;1829582;78;21573;-61
2021/06/23 14:31:11;;;;;;;11.97;4.00;;;;;;;32.75;43.03;98550.67;1821844;78;21558;-62
2021/06/23 14:33:39;;;;;;;11.03;3.77;;;;;;;32.75;42.86;98550.09;1816741;78;21024;-62
2021/06/23 14:36:08;;;;;;;15.32;3.75;;;;;;;32.73;41.90;98554.33;1818707;78;21507;-60
2021/06/23 14:38:40;;;;;;;12.07;4.67;;;;;;;32.71;42.52;98564.83;1822126;78;21016;-59
2021/06/23 14:41:07;;;;;;;13.85;4.30;;;;;;;32.68;42.24;98548.58;1828617;78;20993;-59
2021/06/23 14:43:37;;;;;;;20.48;4.47;;;;;;;32.67;42.70;98547.01;1822780;78;21030;-67
2021/06/23 14:46:04;;;;;;;16.25;4.33;;;;;;;32.70;43.25;98547.66;1821323;77;21519;-62
2021/06/23 14:48:32;;;;;;;16.17;4.60;;;;;;;32.74;42.96;98551.80;1828753;78;21012;-60
2021/06/23 14:51:00;;;;;;;13.28;4.35;;;;;;;32.75;43.66;98556.92;1829457;77;21634;-59
2021/06/23 14:53:28;;;;;;;13.65;3.83;;;;;;;32.77;42.85;98549.73;1827281;78;21075;-60
2021/06/23 14:55:56;;;;;;;13.85;4.40;;;;;;;32.75;43.48;98543.86;1819680;78;22501;-60
2021/06/23 14:58:24;;;;;;;13.50;4.03;;;;;;;32.75;43.66;98546.00;1826843;77;21034;-61
2021/06/23 15:00:53;;;;;;;14.43;4.15;;;;;;;32.75;43.59;98547.38;1824226;78;21047;-60
2021/06/23 15:03:21;;;;;;;15.03;4.00;;;;;;;32.73;43.38;98547.50;1824331;78;21071;-65
2021/06/23 15:05:49;;;;;;;16.60;4.33;;;;;;;32.70;43.05;98543.56;1823851;78;21065;-63
2021/06/23 15:08:18;;;;;;;12.85;3.80;;;;;;;32.66;43.49;98546.02;1819419;78;21490;-61
2021/06/23 15:10:48;;;;;;;12.65;4.20;;;;;;;32.62;43.95;98545.15;1822179;78;21530;-64
2021/06/23 15:13:15;;;;;;;10.35;3.92;;;;;;;32.62;43.95;98545.15;1825758;78;21052;-62
2021/06/23 15:15:45;;;;;;;10.37;4.13;;;;;;;32.61;44.28;98542.22;1822420;77;21559;-62
2021/06/23 15:18:13;;;;;;;10.35;4.17;;;;;;;32.60;44.03;98556.44;1819384;77;21023;-59
2021/06/23 15:20:42;;;;;;;11.78;4.15;;;;;;;32.61;44.25;98554.48;1830247;78;21517;-65
2021/06/23 15:23:10;;;;;;;10.03;4.47;;;;;;;32.56;43.21;98553.42;1808642;77;21097;-67
2021/06/23 15:25:39;;;;;;;9.10;4.10;;;;;;;32.51;43.32;98553.91;1825298;77;21505;-60
2021/06/23 15:28:07;;;;;;;10.23;3.92;;;;;;;32.50;42.19;98558.38;1823546;77;21055;-58
2021/06/23 15:30:35;;;;;;;16.77;4.45;;;;;;;32.47;42.01;98559.89;1827041;77;20991;-62
2021/06/23 15:33:03;;;;;;;20.00;4.53;;;;;;;32.43;40.41;98553.58;1818149;77;21016;-62
2021/06/23 15:35:31;;;;;;;19.20;5.62;;;;;;;32.37;39.94;98554.23;1823156;78;21030;-58
2021/06/23 15:37:59;;;;;;;19.15;5.22;;;;;;;32.29;39.18;98555.19;1826389;78;20980;-60
2021/06/23 15:40:27;;;;;;;27.05;5.70;;;;;;;32.21;39.70;98551.53;1826028;78;21018;-61
2021/06/23 15:42:56;;;;;;;23.13;5.17;;;;;;;32.16;39.51;98553.18;1824505;78;20996;-60
2021/06/23 15:45:24;;;;;;;25.55;5.25;;;;;;;32.09;39.33;98552.46;1830743;78;21015;-58
2021/06/23 15:47:51;;;;;;;25.45;5.47;;;;;;;32.04;40.07;98554.69;1818354;78;21011;-60
2021/06/23 15:50:19;;;;;;;26.40;6.40;;;;;;;31.99;40.37;98563.92;1823253;78;21024;-58
2021/06/23 15:52:49;;;;;;;27.13;6.25;;;;;;;31.92;40.61;98560.48;1826344;78;21578;-59
2021/06/23 15:55:17;;;;;;;25.50;6.22;;;;;;;31.88;40.96;98569.72;1822559;78;21040;-60
2021/06/23 15:57:45;;;;;;;22.30;5.85;;;;;;;31.84;41.28;98566.92;1817279;78;21087;-59
2021/06/23 16:00:14;;;;;;;31.93;7.28;;;;;;;31.79;41.84;98560.36;1825253;78;21492;-59
2021/06/23 16:02:42;;;;;;;31.65;6.60;;;;;;;31.75;41.92;98560.84;1828242;78;21184;-61
2021/06/23 16:05:11;;;;;;;25.15;6.30;;;;;;;31.71;42.30;98555.88;1821849;78;21058;-57
2021/06/23 16:07:39;;;;;;;30.15;6.62;;;;;;;31.70;42.52;98556.45;1831693;78;21023;-59
2021/06/23 16:10:09;;;;;;;23.17;6.40;;;;;;;31.70;42.71;98563.27;1826870;78;21079;-60
2021/06/23 16:12:37;;;;;;;39.88;7.10;;;;;;;31.69;43.09;98570.44;1832996;78;20969;-60
2021/06/23 16:15:07;;;;;;;30.88;7.33;;;;;;;31.65;43.48;98565.47;1819370;78;21003;-60
2021/06/23 16:17:34;;;;;;;29.95;7.05;;;;;;;31.63;44.17;98573.22;1818050;78;21141;-59
2021/06/23 16:20:03;;;;;;;27.80;6.17;;;;;;;31.61;44.59;98573.58;1819334;78;21027;-60
2021/06/23 16:22:34;;;;;;;32.42;7.10;;;;;;;31.59;44.92;98576.42;1822916;78;20995;-59
2021/06/23 16:25:00;;;;;;;25.90;6.72;;;;;;;31.54;44.55;98576.11;1825996;77;21062;-60
2021/06/23 16:27:28;;;;;;;37.20;7.42;;;;;;;31.49;44.84;98575.63;1816288;78;21058;-59
2021/06/23 16:29:56;;;;;;;27.52;6.70;;;;;;;31.43;44.76;98586.78;1825764;78;21028;-59
2021/06/23 16:32:24;;;;;;;36.00;6.78;;;;;;;31.37;45.10;98588.73;1823193;78;21020;-59
2021/06/23 16:34:52;;;;;;;36.70;11.40;;;;;;;31.32;45.50;98590.39;1825856;78;21024;-60
2021/06/23 16:37:20;;;;;;;44.08;15.78;;;;;;;31.24;45.43;98592.66;1824066;78;21058;-58
2021/06/23 16:39:48;;;;;;;56.33;19.00;;;;;;;31.17;45.81;98596.80;1827159;78;20980;-60
2021/06/23 16:42:15;;;;;;;49.75;18.20;;;;;;;31.12;45.87;98597.63;1820570;78;21040;-60
2021/06/23 16:44:44;;;;;;;50.92;18.90;;;;;;;31.09;46.24;98603.78;1822891;78;21506;-59
2021/06/23 16:47:13;;;;;;;48.33;17.77;;;;;;;31.05;46.04;98604.25;1830811;78;21024;-59